Pagrindinis puslapis
METAR-TAF:

METAR-TAF

Oro uostai :

Marabá, Para, Brazilija

platuma: 05-21S, ilguma: 049-09W, Aukštis: 95 m

Dabartinis oras

Ataskaita buvo paskelbta 19 minutes, ne 23:00 UTC
Vėjas 5 kt iš Šiaurės Vakarų
Temperatūra 29°C
Drėgmė 70%
Slėgis 1009 hPa
Matomumas 10 km arba daugiau
nėra debesų žemiau 1500 m ir nėra kamuolinių lietaus debesų

METAR: SBMA 162300Z 31005KT CAVOK 29/23 Q1009

Laikas: 20:19 (23:19 UTC)

Prognozė

Ataskaita buvo paskelbta 7 valandos ir 56 minutes, ne 15:23 UTC
Prognozė galioja nuo 16 metu 18 UTC su 17 metu 06 UTC
Vėjas 5 kt iš Šiaurės Rytų
Matomumas 10 km arba daugiau
Mažai debesys ne aukštis 2300 ft
Mažai debesys ne aukštis 2500 ft, aukštai iškilę kamuoliniai debesys.
Tapsmas
nuo 16 metu 20 UTC su 16 metu 22 UTC
Vėjas 5 kt iš Šiaurės Vakarų
Matomumas 10 km arba daugiau
nėra debesų žemiau 1500 m ir nėra kamuolinių lietaus debesų

TAF: SBMA 161523Z 1618/1706 04005KT 9999 FEW023 FEW025TCU TX37/1619Z TN25/1706Z BECMG 1620/1622 32005KT CAVOK RMK PHI

Orai ataskaitas ir orų prognozės (METAR, TAF).

turimą stotys yra geltonos ir raudonos taškus žemėlapyje.

Perkelti pele per norėdami pamatyti stoties vardą.

Tada spustelėkite, norėdami matyti oro stebėjimo ir prognozės.

Norėdami pakeisti žemėlapį: spustelėkite ant žalios mygtukų su juodo kryžiaus žemyn,; žalią mygtuką su brūkšneliu, jei norite nutolinti; arba žalių rodyklių gretimoms žemėlapius.


METAR-TAF: